Time;durP1;ratioP1;P1;durP2;ratioP2;P2;SDS_P1;SDS_P2;PMS_P1;PMS_P2;Temp;Humidity;BMP_temperature;BMP_pressure;BME280_temperature;BME280_humidity;BME280_pressure;Samples;Min_cycle;Max_cycle;Signal;HPM_P1;HPM_P2
2023/08/29 00:00:10;;;;;;;7.13;6.18;;;;;;;22.36;95.98;99144.94;5075827;28;20044;-93
2023/08/29 00:02:41;;;;;;;11.40;7.85;;;;;;;22.32;95.85;99144.94;5075594;28;20056;-93
2023/08/29 00:05:10;;;;;;;9.68;7.05;;;;;;;22.25;95.94;99162.44;5075916;28;20053;-93
2023/08/29 00:07:38;;;;;;;12.68;8.35;;;;;;;21.82;97.71;99151.16;5075318;28;20068;-93
2023/08/29 00:10:06;;;;;;;10.82;7.68;;;;;;;21.74;99.15;99151.16;5075161;28;20486;-93
2023/08/29 00:12:34;;;;;;;15.07;10.15;;;;;;;21.79;99.58;99152.75;5075813;28;20498;-91
2023/08/29 00:15:06;;;;;;;12.68;8.98;;;;;;;21.70;100.00;99143.97;5074723;28;20048;-91
2023/08/29 00:17:34;;;;;;;11.02;7.78;;;;;;;21.73;100.00;99145.97;5074858;28;20056;-91
2023/08/29 00:20:02;;;;;;;10.93;8.60;;;;;;;21.53;100.00;99143.47;5074738;28;20040;-88
2023/08/29 00:22:30;;;;;;;9.60;8.10;;;;;;;21.48;100.00;99154.97;5074463;28;20056;-90
2023/08/29 00:24:58;;;;;;;14.13;8.68;;;;;;;21.56;100.00;99164.16;5074313;28;20044;-86
2023/08/29 00:27:26;;;;;;;10.93;8.90;;;;;;;21.47;100.00;99170.09;5073986;28;20060;-86
2023/08/29 00:29:54;;;;;;;15.23;8.05;;;;;;;21.60;100.00;99171.34;5072681;28;20399;-88
2023/08/29 00:32:22;;;;;;;13.27;9.55;;;;;;;21.67;100.00;99178.13;5072752;28;20056;-88
2023/08/29 00:34:50;;;;;;;12.95;9.32;;;;;;;21.66;100.00;99177.34;5074598;28;20045;-88
2023/08/29 00:37:18;;;;;;;11.38;8.73;;;;;;;21.70;100.00;99169.03;5074246;28;20123;-89
2023/08/29 00:39:46;;;;;;;13.93;9.40;;;;;;;21.81;100.00;99155.16;5073835;28;20529;-88
2023/08/29 00:42:14;;;;;;;13.40;8.85;;;;;;;22.02;100.00;99166.38;5074706;28;20044;-89
2023/08/29 00:44:41;;;;;;;15.45;8.48;;;;;;;22.08;99.71;99163.19;5070754;28;20049;-90
2023/08/29 00:47:09;;;;;;;12.77;9.20;;;;;;;21.85;100.00;99155.97;5072364;28;20048;-90
2023/08/29 00:49:38;;;;;;;12.73;9.07;;;;;;;21.79;100.00;99152.75;5074379;28;20040;-89
2023/08/29 00:52:06;;;;;;;13.77;9.98;;;;;;;21.88;100.00;99144.84;5073191;28;20471;-90
2023/08/29 00:54:34;;;;;;;12.70;9.15;;;;;;;21.72;100.00;99145.19;5074881;28;20487;-89
2023/08/29 00:57:02;;;;;;;11.50;8.48;;;;;;;21.67;100.00;99145.53;5073585;28;20044;-89
2023/08/29 00:59:31;;;;;;;15.18;10.30;;;;;;;21.62;100.00;99143.13;5073472;28;20048;-89
2023/08/29 01:01:58;;;;;;;14.80;8.73;;;;;;;21.80;100.00;99139.63;5073032;28;20045;-89
2023/08/29 01:04:26;;;;;;;13.18;9.85;;;;;;;21.90;100.00;99141.69;5073015;28;20056;-88
2023/08/29 01:06:55;;;;;;;14.02;9.57;;;;;;;21.81;100.00;99144.00;5074200;28;20479;-89
2023/08/29 01:09:23;;;;;;;11.93;9.00;;;;;;;21.69;100.00;99142.34;5072260;28;20048;-90
2023/08/29 01:12:15;;;;;;;14.93;8.98;;;;;;;21.80;100.00;99132.06;5073619;28;20059;-89
2023/08/29 01:15:01;;;;;;;11.68;9.85;;;;;;;21.83;100.00;99152.75;5072125;28;20079;-89
2023/08/29 01:17:44;;;;;;;15.43;9.50;;;;;;;21.78;100.00;99155.91;5072395;28;20056;-89
2023/08/29 01:20:14;;;;;;;13.05;10.60;;;;;;;21.90;100.00;99155.59;5073158;28;20056;-91
2023/08/29 01:22:48;;;;;;;12.52;9.85;;;;;;;21.93;100.00;99148.41;5073695;28;20040;-89
2023/08/29 01:25:34;;;;;;;14.98;9.50;;;;;;;21.82;100.00;99138.06;5053904;28;20052;-89
2023/08/29 01:28:04;;;;;;;16.48;10.27;;;;;;;21.74;100.00;99125.28;5053855;28;20056;-90
2023/08/29 01:30:34;;;;;;;14.15;9.63;;;;;;;21.82;100.00;99134.47;5053386;28;20056;-90
2023/08/29 01:33:01;;;;;;;15.68;10.85;;;;;;;21.91;100.00;99131.31;5052718;28;20061;-89
2023/08/29 01:35:31;;;;;;;13.52;9.30;;;;;;;21.84;100.00;99134.88;5066792;28;20060;-90
2023/08/29 01:37:59;;;;;;;13.82;10.68;;;;;;;21.77;100.00;99134.84;5078911;28;20052;-90
2023/08/29 01:40:27;;;;;;;12.68;9.75;;;;;;;21.68;100.00;99133.19;5084675;28;20060;-89
2023/08/29 01:42:55;;;;;;;15.77;10.85;;;;;;;21.73;100.00;99130.06;5075901;28;20056;-90
2023/08/29 01:45:23;;;;;;;13.95;9.57;;;;;;;21.79;100.00;99129.69;5073252;28;20049;-90
2023/08/29 01:47:51;;;;;;;14.52;10.55;;;;;;;21.84;100.00;99121.75;5071363;28;20075;-89
2023/08/29 01:50:20;;;;;;;13.70;9.15;;;;;;;21.75;100.00;99127.69;5073225;28;20463;-90
2023/08/29 01:52:49;;;;;;;10.85;8.27;;;;;;;21.82;100.00;99131.69;5072262;28;20063;-89
2023/08/29 01:55:17;;;;;;;13.57;8.70;;;;;;;21.64;100.00;99135.16;5071892;28;20048;-88
2023/08/29 01:57:48;;;;;;;11.18;8.93;;;;;;;21.70;100.00;99130.06;5072965;28;20478;-89
2023/08/29 02:00:16;;;;;;;11.05;7.43;;;;;;;21.72;100.00;99136.84;5070109;28;20053;-90
2023/08/29 02:02:44;;;;;;;8.95;6.18;;;;;;;21.61;100.00;99128.38;5073023;28;20037;-89
2023/08/29 02:05:12;;;;;;;8.88;6.43;;;;;;;21.57;98.92;99124.00;5072944;28;20048;-89
2023/08/29 02:07:40;;;;;;;7.95;5.55;;;;;;;21.46;99.47;99137.88;5072911;28;20044;-88
2023/08/29 02:10:10;;;;;;;9.25;6.03;;;;;;;21.38;99.65;99127.88;5071713;28;20045;-88
2023/08/29 02:12:38;;;;;;;4.75;4.25;;;;;;;21.19;100.00;99127.78;5070986;28;20063;-89
2023/08/29 02:15:07;;;;;;;5.30;4.05;;;;;;;21.24;99.85;99139.72;5072885;28;20056;-89
2023/08/29 02:17:36;;;;;;;7.95;4.00;;;;;;;21.02;99.88;99139.59;5070868;28;20067;-90
2023/08/29 02:20:08;;;;;;;4.32;3.45;;;;;;;21.01;100.00;99138.00;5071298;28;20181;-89
2023/08/29 02:22:36;;;;;;;5.50;3.55;;;;;;;21.00;99.73;99147.50;5071210;28;20048;-89
2023/08/29 02:25:04;;;;;;;3.15;2.67;;;;;;;20.82;100.00;99134.25;5072150;28;20395;-89
2023/08/29 02:27:32;;;;;;;6.68;3.10;;;;;;;20.91;99.57;99140.31;5072524;28;20398;-90
2023/08/29 02:30:04;;;;;;;4.45;3.00;;;;;;;20.91;100.00;99137.53;5071557;28;20059;-90
2023/08/29 02:32:35;;;;;;;3.08;2.65;;;;;;;21.02;99.65;99139.59;5072299;28;20056;-88
2023/08/29 02:35:03;;;;;;;3.15;2.55;;;;;;;21.02;98.94;99145.16;5071387;28;20040;-89
2023/08/29 02:37:34;;;;;;;4.40;2.30;;;;;;;21.02;98.95;99134.03;5072326;28;20039;-89
2023/08/29 02:40:09;;;;;;;3.60;2.20;;;;;;;21.02;99.99;99132.03;5070450;28;20059;-90
2023/08/29 02:42:37;;;;;;;2.30;1.95;;;;;;;20.92;99.14;99130.78;5072316;28;20044;-90
2023/08/29 02:45:05;;;;;;;2.83;1.30;;;;;;;20.76;100.00;99119.09;5071909;28;20495;-90
2023/08/29 02:47:33;;;;;;;1.65;1.52;;;;;;;20.67;100.00;99113.88;5070421;28;20048;-91
2023/08/29 02:50:01;;;;;;;2.85;1.52;;;;;;;21.05;98.94;99120.16;5071992;28;20051;-90
2023/08/29 02:52:29;;;;;;;2.17;1.55;;;;;;;21.14;98.86;99119.81;5072254;28;20052;-90
2023/08/29 02:54:58;;;;;;;2.63;2.30;;;;;;;21.02;100.00;99123.69;5071792;28;20056;-90
2023/08/29 02:57:26;;;;;;;2.33;2.13;;;;;;;20.98;100.00;99122.09;5070200;28;20044;-88
2023/08/29 02:59:54;;;;;;;5.97;2.67;;;;;;;20.94;99.51;99120.09;5072067;28;20376;-90
2023/08/29 03:02:22;;;;;;;3.55;2.40;;;;;;;21.05;100.00;99130.47;5071534;28;20048;-90
2023/08/29 03:04:50;;;;;;;4.78;2.90;;;;;;;21.05;99.75;99127.69;5070399;28;20051;-89
2023/08/29 03:07:18;;;;;;;3.97;3.05;;;;;;;21.11;99.75;99131.69;5072147;28;20048;-89
2023/08/29 03:09:46;;;;;;;4.63;2.67;;;;;;;21.38;97.97;99128.69;5054094;28;20052;-90
2023/08/29 03:12:14;;;;;;;4.00;3.10;;;;;;;21.42;97.23;99134.28;5070545;28;20045;-89
2023/08/29 03:14:42;;;;;;;5.53;2.42;;;;;;;21.35;98.00;99124.69;5071763;28;20052;-87
2023/08/29 03:17:10;;;;;;;3.15;2.80;;;;;;;21.13;100.00;99129.34;5072015;28;20063;-88
2023/08/29 03:19:38;;;;;;;4.82;2.65;;;;;;;21.05;100.00;99144.38;5070650;28;20146;-86
2023/08/29 03:22:06;;;;;;;6.25;2.75;;;;;;;21.26;100.00;99154.06;5072302;28;20044;-86
2023/08/29 03:24:34;;;;;;;3.80;2.22;;;;;;;21.37;99.25;99154.91;5070620;28;20040;-85
2023/08/29 03:27:03;;;;;;;4.65;2.03;;;;;;;21.26;99.42;99148.50;5071703;28;20055;-85
2023/08/29 03:29:31;;;;;;;2.92;2.05;;;;;;;21.42;98.85;99134.28;5070624;28;20045;-85
2023/08/29 03:31:59;;;;;;;2.38;1.77;;;;;;;21.30;99.49;99138.16;5070633;28;20032;-86
2023/08/29 03:34:27;;;;;;;3.85;1.70;;;;;;;21.11;100.00;99130.91;5070238;28;20053;-87
2023/08/29 03:36:55;;;;;;;2.47;1.83;;;;;;;21.02;100.00;99129.25;5069977;28;20040;-86
2023/08/29 03:39:23;;;;;;;2.28;1.63;;;;;;;21.24;100.00;99132.19;5070488;28;20041;-85
2023/08/29 03:41:51;;;;;;;1.80;1.70;;;;;;;21.15;100.00;99134.50;5071620;28;20048;-86
2023/08/29 03:44:19;;;;;;;3.00;1.85;;;;;;;21.23;100.00;99132.56;5070614;28;20115;-86
2023/08/29 03:46:47;;;;;;;3.03;1.70;;;;;;;20.93;100.00;99126.03;5070611;28;20067;-86
2023/08/29 03:49:15;;;;;;;4.15;1.73;;;;;;;21.06;100.00;99120.94;5070942;28;20048;-86
2023/08/29 03:51:43;;;;;;;2.90;1.88;;;;;;;21.18;100.00;99130.97;5070548;28;20041;-86
2023/08/29 03:54:11;;;;;;;4.30;1.77;;;;;;;21.25;98.76;99122.66;5071285;28;20045;-86
2023/08/29 03:56:39;;;;;;;3.40;1.50;;;;;;;21.23;96.92;99125.03;5071552;28;20044;-87
2023/08/29 03:59:07;;;;;;;2.00;1.20;;;;;;;21.11;99.14;99123.34;5053474;28;20048;-88
2023/08/29 04:01:35;;;;;;;2.63;1.40;;;;;;;21.03;99.55;99118.94;5070484;28;20036;-88
2023/08/29 04:04:03;;;;;;;2.72;1.15;;;;;;;20.97;100.00;99126.06;5071322;28;20049;-88
2023/08/29 04:06:35;;;;;;;1.10;1.00;;;;;;;20.94;100.00;99120.09;5071631;28;20041;-88
2023/08/29 04:09:03;;;;;;;2.20;1.25;;;;;;;21.03;99.85;99118.94;5069186;28;20487;-88
2023/08/29 04:11:31;;;;;;;2.63;1.00;;;;;;;21.06;100.00;99112.59;5050311;28;20045;-87
2023/08/29 04:13:59;;;;;;;1.50;0.77;;;;;;;21.13;98.74;99134.09;5050211;28;20570;-88
2023/08/29 04:16:27;;;;;;;3.58;0.95;;;;;;;21.08;98.37;99138.06;5051333;28;20053;-88
2023/08/29 04:18:55;;;;;;;2.60;1.20;;;;;;;21.02;99.17;99156.28;5066748;28;20041;-88
2023/08/29 04:21:23;;;;;;;3.65;1.15;;;;;;;20.77;99.42;99148.53;5049307;28;20053;-88
2023/08/29 04:23:51;;;;;;;1.75;1.02;;;;;;;20.83;99.33;99155.31;5053682;28;20041;-87
2023/08/29 04:26:19;;;;;;;2.70;0.77;;;;;;;20.93;99.27;99160.19;5036958;28;20057;-88
2023/08/29 04:28:48;;;;;;;1.33;0.82;;;;;;;20.84;100.00;99165.25;5073207;28;20045;-89
2023/08/29 04:31:19;;;;;;;1.17;0.88;;;;;;;20.91;98.03;99178.44;5076200;28;20048;-88
2023/08/29 04:33:47;;;;;;;3.63;1.50;;;;;;;20.81;99.19;99182.69;5075624;28;20376;-87
2023/08/29 04:36:18;;;;;;;4.70;1.30;;;;;;;20.75;98.83;99187.00;5073718;28;20060;-88
2023/08/29 04:38:47;;;;;;;3.55;1.55;;;;;;;20.93;98.16;99189.97;5072501;28;20055;-88
2023/08/29 04:41:16;;;;;;;1.88;1.08;;;;;;;21.03;98.31;99194.03;5072252;28;20045;-85
2023/08/29 04:43:44;;;;;;;1.55;0.90;;;;;;;21.07;97.05;99190.09;5073473;28;20041;-86
2023/08/29 04:46:12;;;;;;;2.42;0.90;;;;;;;21.02;96.24;99190.44;5074410;28;20072;-86
2023/08/29 04:48:40;;;;;;;1.13;1.02;;;;;;;20.87;96.84;99195.09;5072069;28;20056;-86
2023/08/29 04:51:09;;;;;;;2.67;0.98;;;;;;;20.98;96.64;99203.53;5069932;28;20398;-84
2023/08/29 04:53:37;;;;;;;3.63;1.40;;;;;;;20.83;95.50;99199.81;5073901;28;20044;-86
2023/08/29 04:56:05;;;;;;;2.33;1.02;;;;;;;20.84;96.54;99193.06;5068847;28;20064;-86
2023/08/29 04:58:36;;;;;;;1.77;0.80;;;;;;;21.15;94.99;99193.72;5053028;28;20045;-87
2023/08/29 05:01:04;;;;;;;3.40;0.90;;;;;;;20.95;95.13;99193.16;5071626;28;20040;-88
2023/08/29 05:03:32;;;;;;;3.17;0.80;;;;;;;21.03;93.71;99191.25;5072290;28;20056;-87
2023/08/29 05:06:00;;;;;;;2.17;0.93;;;;;;;21.02;92.83;99189.66;5074034;28;20060;-89
2023/08/29 05:08:34;;;;;;;1.45;0.70;;;;;;;20.88;91.98;99201.47;5056731;28;20044;-89
2023/08/29 05:11:03;;;;;;;3.53;0.57;;;;;;;20.75;89.56;99198.13;5072739;28;20071;-88
2023/08/29 05:13:32;;;;;;;1.75;0.70;;;;;;;20.61;91.79;99199.59;5072867;28;20036;-89
2023/08/29 05:16:00;;;;;;;5.35;0.60;;;;;;;20.81;91.81;99202.97;5073483;28;20063;-91
2023/08/29 05:18:29;;;;;;;1.27;0.50;;;;;;;20.68;91.76;99205.22;5073715;28;20043;-89
2023/08/29 05:20:58;;;;;;;0.80;0.40;;;;;;;20.61;92.87;99194.03;5072396;28;20063;-91
2023/08/29 05:23:26;;;;;;;1.80;0.60;;;;;;;20.55;94.58;99190.00;5072294;28;20796;-92
2023/08/29 05:25:54;;;;;;;0.75;0.47;;;;;;;20.82;91.83;99187.06;5074274;28;20048;-93
2023/08/29 05:28:22;;;;;;;1.33;0.43;;;;;;;20.78;91.38;99186.25;5073983;28;20036;-89
2023/08/29 05:30:50;;;;;;;1.63;0.52;;;;;;;20.81;91.58;99182.69;5073828;28;20059;-90
2023/08/29 05:33:18;;;;;;;0.63;0.40;;;;;;;20.69;90.76;99192.13;5073652;28;20052;-90
2023/08/29 05:35:46;;;;;;;0.73;0.40;;;;;;;20.65;90.37;99188.50;5072430;28;20486;-90
2023/08/29 05:38:14;;;;;;;2.63;0.47;;;;;;;20.81;89.85;99207.72;5073033;28;20048;-88
2023/08/29 05:40:42;;;;;;;0.60;0.32;;;;;;;20.84;90.60;99218.09;5073732;28;20051;-85
2023/08/29 05:43:10;;;;;;;1.92;0.60;;;;;;;20.53;91.56;99204.28;5054676;28;20048;-86
2023/08/29 05:45:41;;;;;;;1.55;1.23;;;;;;;20.62;91.23;99206.75;5073038;28;20064;-87
2023/08/29 05:48:09;;;;;;;1.00;0.70;;;;;;;20.71;93.39;99203.66;5072102;28;20045;-87
2023/08/29 05:50:41;;;;;;;3.78;0.63;;;;;;;20.72;93.04;99208.03;5073133;28;20048;-86
2023/08/29 05:53:09;;;;;;;0.75;0.32;;;;;;;20.70;92.83;99210.41;5073448;28;20037;-85
2023/08/29 05:55:37;;;;;;;1.25;0.60;;;;;;;20.61;94.33;99221.84;5072865;28;20053;-88
2023/08/29 05:58:05;;;;;;;0.93;0.50;;;;;;;20.44;96.32;99211.34;5074236;28;20048;-88
2023/08/29 06:00:35;;;;;;;1.85;0.30;;;;;;;20.60;95.87;99209.13;5073995;28;20049;-85
2023/08/29 06:03:06;;;;;;;2.38;0.77;;;;;;;20.56;96.50;99216.63;5072867;28;20051;-87
2023/08/29 06:05:36;;;;;;;0.70;0.32;;;;;;;20.55;96.01;99220.59;5055717;28;20060;-87
2023/08/29 06:08:06;;;;;;;0.65;0.30;;;;;;;20.57;95.01;99221.00;5072334;28;20048;-88
2023/08/29 06:10:46;;;;;;;1.63;0.60;;;;;;;20.71;94.17;99222.34;5054474;28;20057;-89
2023/08/29 06:13:14;;;;;;;1.75;0.55;;;;;;;20.73;92.78;99214.41;5054645;28;20037;-89
2023/08/29 06:15:43;;;;;;;0.73;0.20;;;;;;;20.63;92.47;99213.13;5068013;28;20095;-90
2023/08/29 06:18:11;;;;;;;1.38;0.52;;;;;;;20.72;94.82;99213.59;5072555;28;20517;-89
2023/08/29 06:20:40;;;;;;;1.02;0.43;;;;;;;21.05;93.31;99200.00;5072069;28;20060;-89
2023/08/29 06:23:08;;;;;;;1.15;0.43;;;;;;;21.27;89.60;99200.16;5073189;28;20049;-90
2023/08/29 06:25:37;;;;;;;1.77;0.45;;;;;;;21.64;88.75;99199.19;5072891;28;20399;-88
2023/08/29 06:28:05;;;;;;;1.88;0.50;;;;;;;21.62;92.07;99196.78;5072552;28;20055;-89
2023/08/29 06:30:35;;;;;;;0.55;0.40;;;;;;;21.66;88.99;99196.81;5072771;28;20059;-89
2023/08/29 06:33:06;;;;;;;1.15;0.43;;;;;;;21.58;90.74;99197.97;5055360;28;20067;-89
2023/08/29 06:35:38;;;;;;;0.85;0.50;;;;;;;21.48;91.45;99200.31;5072446;28;20056;-89
2023/08/29 06:38:07;;;;;;;0.68;0.40;;;;;;;21.60;87.13;99190.81;5071135;28;20049;-91
2023/08/29 06:40:36;;;;;;;2.40;0.43;;;;;;;21.78;86.82;99206.03;5071396;28;20041;-94
2023/08/29 06:43:05;;;;;;;0.65;0.30;;;;;;;21.98;87.10;99207.34;5073428;28;20055;-92
2023/08/29 06:45:34;;;;;;;1.33;0.28;;;;;;;22.11;85.42;99205.00;5072326;28;20044;-92
2023/08/29 06:48:02;;;;;;;0.80;0.45;;;;;;;22.01;87.47;99203.75;5072666;28;20049;-91
2023/08/29 06:50:34;;;;;;;0.60;0.10;;;;;;;22.08;87.50;99202.19;5073517;28;20372;-92
2023/08/29 06:53:03;;;;;;;0.68;0.38;;;;;;;22.31;84.21;99209.41;5072834;28;20044;-93
2023/08/29 06:55:34;;;;;;;1.02;0.40;;;;;;;22.20;85.59;99214.97;5071184;28;20055;-91
2023/08/29 06:58:06;;;;;;;0.32;0.15;;;;;;;22.11;86.78;99209.75;5076927;28;20514;-91
2023/08/29 07:00:35;;;;;;;2.17;0.40;;;;;;;21.99;85.98;99217.28;5072546;28;20399;-92
2023/08/29 07:03:04;;;;;;;0.43;0.20;;;;;;;22.10;85.97;99214.53;5072231;28;20049;-91
2023/08/29 07:05:33;;;;;;;0.32;0.30;;;;;;;22.15;84.51;99207.81;5071277;28;20052;-91
2023/08/29 07:08:03;;;;;;;0.40;0.30;;;;;;;22.34;84.20;99217.00;5071875;28;20399;-90
2023/08/29 07:10:33;;;;;;;1.25;0.20;;;;;;;22.50;83.03;99220.25;5071609;28;20494;-92
2023/08/29 07:13:04;;;;;;;0.85;0.40;;;;;;;22.74;80.06;99206.75;5070519;28;20399;-88
2023/08/29 07:15:38;;;;;;;1.55;0.60;;;;;;;22.77;78.08;99225.47;5079435;28;20055;-90
2023/08/29 07:18:07;;;;;;;0.35;0.30;;;;;;;22.91;75.41;99219.09;5083307;28;20394;-92
2023/08/29 07:20:37;;;;;;;1.13;0.50;;;;;;;22.89;76.96;99220.69;5073927;28;21181;-80
2023/08/29 07:23:05;;;;;;;1.52;0.75;;;;;;;22.78;75.33;99220.69;5071590;28;20383;-79
2023/08/29 07:25:38;;;;;;;2.67;0.88;;;;;;;22.92;72.85;99219.91;5070457;28;20051;-80
2023/08/29 07:28:09;;;;;;;2.53;0.80;;;;;;;22.98;70.89;99223.91;5071548;28;20055;-81
2023/08/29 07:30:45;;;;;;;3.25;0.88;;;;;;;23.07;71.99;99215.91;5070762;28;20047;-80
2023/08/29 07:33:14;;;;;;;2.30;0.70;;;;;;;23.18;72.22;99223.50;5071197;28;20049;-81
2023/08/29 07:35:45;;;;;;;2.33;0.75;;;;;;;23.02;71.15;99221.13;5071636;28;20430;-79
2023/08/29 07:38:14;;;;;;;0.50;0.43;;;;;;;22.92;71.23;99228.28;5071762;28;20048;-78
2023/08/29 07:40:44;;;;;;;1.08;0.40;;;;;;;22.80;70.93;99230.28;5077846;28;20056;-79
2023/08/29 07:43:13;;;;;;;1.27;0.60;;;;;;;22.71;71.16;99237.41;5078465;28;20040;-79
2023/08/29 07:45:42;;;;;;;1.55;0.47;;;;;;;22.78;75.06;99229.84;5075425;28;20053;-78
2023/08/29 07:48:11;;;;;;;1.25;0.80;;;;;;;22.59;72.32;99230.22;5071097;28;20079;-80
2023/08/29 07:50:39;;;;;;;1.73;0.73;;;;;;;22.69;75.07;99226.66;5072403;28;20047;-81
2023/08/29 07:53:08;;;;;;;1.95;0.77;;;;;;;22.76;76.98;99228.66;5072505;28;20395;-78
2023/08/29 07:55:36;;;;;;;1.42;0.60;;;;;;;22.71;77.71;99238.22;5072081;28;20055;-93
2023/08/29 07:58:05;;;;;;;2.20;0.93;;;;;;;22.78;79.39;99238.22;5073024;28;20394;-89
2023/08/29 08:00:34;;;;;;;0.85;0.60;;;;;;;22.73;77.94;99244.19;5070252;28;20655;-88
2023/08/29 08:03:03;;;;;;;0.60;0.55;;;;;;;22.76;76.57;99245.38;5066995;28;20051;-89
2023/08/29 08:05:32;;;;;;;1.13;0.70;;;;;;;22.61;nan;99250.13;5074004;28;20395;-92
2023/08/29 08:08:00;;;;;;;0.90;0.57;;;;;;;22.76;69.77;99262.09;5076505;28;20502;-88
2023/08/29 08:10:29;;;;;;;1.05;0.63;;;;;;;22.98;75.22;99267.72;5076920;28;20513;-88
2023/08/29 08:12:58;;;;;;;0.85;0.50;;;;;;;23.03;70.64;99270.13;5072202;28;20423;-83
2023/08/29 08:15:34;;;;;;;1.45;0.70;;;;;;;23.06;69.88;99280.47;5070434;28;20059;-83
2023/08/29 08:18:16;;;;;;;2.08;0.60;;;;;;;23.11;69.98;99284.88;5073758;28;20406;-83
2023/08/29 08:30:40;;;;;;;0.60;0.60;;;;;;;22.94;62.55;99329.88;5058518;28;20043;-84
2023/08/29 08:33:08;;;;;;;1.55;0.63;;;;;;;22.98;64.66;99341.06;5064116;28;20060;-83
2023/08/29 08:35:37;;;;;;;4.18;1.38;;;;;;;22.85;65.21;99364.91;5073097;28;20088;-78
2023/08/29 08:38:18;;;;;;;0.93;0.55;;;;;;;22.86;65.24;99366.53;5052133;28;20068;-81
2023/08/29 08:40:46;;;;;;;1.17;0.50;;;;;;;22.65;66.35;99379.19;5051213;28;20063;-80
2023/08/29 08:43:16;;;;;;;1.27;0.50;;;;;;;22.62;68.15;99385.56;5071135;28;20234;-80
2023/08/29 08:45:45;;;;;;;0.80;0.50;;;;;;;22.64;66.25;99394.34;5071443;28;20053;-80
2023/08/29 08:48:15;;;;;;;0.68;0.68;;;;;;;22.70;67.70;99387.19;5073404;28;20107;-80
2023/08/29 08:50:45;;;;;;;1.73;0.80;;;;;;;22.67;67.49;99397.13;5061287;28;20052;-81
2023/08/29 08:53:15;;;;;;;1.73;0.63;;;;;;;22.46;67.07;99394.19;5065655;28;20052;-79
2023/08/29 08:55:43;;;;;;;1.15;0.60;;;;;;;22.29;66.53;99386.16;5063371;28;20395;-81
2023/08/29 08:58:12;;;;;;;1.80;0.60;;;;;;;22.61;66.96;99389.53;5070327;28;20053;-80
2023/08/29 09:00:40;;;;;;;0.77;0.30;;;;;;;22.75;67.62;99388.78;5073282;28;20080;-81
2023/08/29 09:03:10;;;;;;;0.40;0.40;;;;;;;22.72;68.96;99390.38;5073327;28;20110;-82
2023/08/29 09:05:38;;;;;;;0.50;0.50;;;;;;;22.72;69.13;99389.59;5070779;28;20048;-81
2023/08/29 09:08:06;;;;;;;0.95;0.55;;;;;;;22.59;69.08;99392.72;5073117;28;20402;-81
2023/08/29 09:10:39;;;;;;;2.35;0.52;;;;;;;22.61;68.97;99378.38;5074300;28;20047;-81
2023/08/29 09:13:16;;;;;;;1.48;0.60;;;;;;;22.77;67.93;99381.63;5074763;28;20056;-80
2023/08/29 09:15:46;;;;;;;1.52;0.50;;;;;;;22.80;67.99;99380.84;5073822;28;20394;-81
2023/08/29 09:18:26;;;;;;;0.57;0.38;;;;;;;22.86;69.33;99374.91;5073317;28;20398;-79
2023/08/29 09:21:00;;;;;;;1.25;0.35;;;;;;;22.88;69.20;99369.72;5068985;28;20055;-81
2023/08/29 09:23:37;;;;;;;1.15;0.43;;;;;;;22.79;69.29;99382.03;5066620;28;20503;-78
2023/08/29 09:26:10;;;;;;;1.60;0.50;;;;;;;22.97;68.68;99372.91;5063294;28;20523;-80
2023/08/29 09:28:39;;;;;;;1.35;0.55;;;;;;;23.17;69.00;99378.16;5053261;28;20377;-81
2023/08/29 09:31:09;;;;;;;3.20;0.65;;;;;;;23.24;69.14;99380.94;5064507;28;20403;-80
2023/08/29 09:33:39;;;;;;;9.10;0.70;;;;;;;23.19;67.59;99372.97;5058733;28;20395;-77
2023/08/29 09:36:07;;;;;;;1.42;0.60;;;;;;;23.20;66.65;99367.00;5052439;28;20060;-79
2023/08/29 09:38:35;;;;;;;2.10;0.50;;;;;;;23.32;65.21;99371.41;5046223;28;20041;-79
2023/08/29 09:41:04;;;;;;;1.92;0.70;;;;;;;23.15;65.68;99367.38;5051517;28;20057;-80
2023/08/29 09:43:33;;;;;;;1.17;0.73;;;;;;;23.18;67.82;99363.00;5051977;28;20399;-80
2023/08/29 09:46:03;;;;;;;1.75;0.45;;;;;;;23.39;67.22;99376.22;5051880;28;20442;-79
2023/08/29 09:48:33;;;;;;;1.33;0.82;;;;;;;23.39;66.51;99381.00;5054328;28;20812;-80
2023/08/29 09:51:03;;;;;;;2.45;0.60;;;;;;;23.19;66.66;99373.78;5061596;28;20395;-78
2023/08/29 09:53:32;;;;;;;1.77;1.08;;;;;;;23.41;67.70;99373.81;5053088;28;20041;-80
2023/08/29 09:56:07;;;;;;;1.58;0.70;;;;;;;23.40;66.85;99379.81;5052490;28;20056;-81
2023/08/29 09:58:38;;;;;;;3.60;1.23;;;;;;;23.66;65.73;99391.78;5065558;28;20517;-81
2023/08/29 10:01:09;;;;;;;1.23;0.63;;;;;;;23.75;64.85;99392.16;5063310;28;20048;-80
2023/08/29 10:03:40;;;;;;;0.77;0.47;;;;;;;23.75;64.94;99392.97;5064888;28;20384;-85
2023/08/29 10:06:15;;;;;;;0.75;0.60;;;;;;;23.74;65.81;99390.56;5072491;28;20063;-82
2023/08/29 10:08:55;;;;;;;2.38;0.60;;;;;;;23.66;65.40;99403.72;5062928;28;20064;-82
2023/08/29 10:11:25;;;;;;;1.02;0.50;;;;;;;23.52;66.42;99395.38;5056056;28;20048;-81
2023/08/29 10:13:58;;;;;;;2.70;0.60;;;;;;;23.74;66.68;99401.75;5059616;28;20056;-82
2023/08/29 10:16:28;;;;;;;0.50;0.30;;;;;;;23.72;66.78;99393.78;5065270;28;20049;-82
2023/08/29 10:18:57;;;;;;;0.47;0.40;;;;;;;23.76;65.99;99399.38;5051902;28;20071;-81
2023/08/29 10:21:27;;;;;;;1.25;0.47;;;;;;;23.68;64.88;99398.56;5051331;28;20045;-79
2023/08/29 10:23:56;;;;;;;1.13;0.50;;;;;;;23.82;66.46;99403.34;5053185;28;20048;-83
2023/08/29 10:26:26;;;;;;;1.42;0.57;;;;;;;23.79;63.44;99404.16;5052943;28;20053;-82
2023/08/29 10:28:56;;;;;;;1.20;0.57;;;;;;;23.67;60.10;99404.53;5053624;28;20061;-82
2023/08/29 10:31:25;;;;;;;1.15;0.63;;;;;;;23.70;59.81;99407.34;5055416;28;20061;-83
2023/08/29 10:33:55;;;;;;;0.82;0.32;;;;;;;23.82;63.06;99403.34;5052497;28;20694;-81
2023/08/29 10:36:25;;;;;;;0.68;0.50;;;;;;;24.02;61.03;99400.13;5051538;28;20060;-83
2023/08/29 10:38:56;;;;;;;0.60;0.30;;;;;;;24.11;60.94;99402.56;5051371;28;20060;-83
2023/08/29 10:41:25;;;;;;;0.50;0.50;;;;;;;24.04;60.54;99386.56;5050822;28;20753;-83
2023/08/29 10:44:28;;;;;;;0.40;0.38;;;;;;;24.09;60.45;99394.56;5052075;28;20407;-83
2023/08/29 10:47:21;;;;;;;1.23;0.40;;;;;;;24.05;58.39;99393.72;5056158;28;20057;-82
2023/08/29 10:50:03;;;;;;;0.40;0.40;;;;;;;23.87;59.57;99386.19;5050738;28;20407;-83
2023/08/29 10:52:40;;;;;;;0.90;0.45;;;;;;;23.98;58.46;99390.97;5049701;28;20045;-84
2023/08/29 10:55:24;;;;;;;1.30;0.60;;;;;;;24.01;61.02;99376.97;5048973;28;20053;-84
2023/08/29 10:57:52;;;;;;;1.30;0.50;;;;;;;24.06;63.31;99386.16;5051011;28;20053;-83
2023/08/29 11:00:42;;;;;;;0.40;0.30;;;;;;;24.14;65.60;99373.78;5068223;28;20048;-83
2023/08/29 11:03:11;;;;;;;0.60;0.43;;;;;;;24.10;65.84;99373.00;5070312;28;20422;-87
2023/08/29 11:05:39;;;;;;;1.13;0.52;;;;;;;24.08;68.30;99373.41;5072743;28;20079;-84
2023/08/29 11:08:23;;;;;;;0.95;0.45;;;;;;;24.01;68.05;99373.41;5073487;28;20079;-85
2023/08/29 11:11:14;;;;;;;1.42;0.60;;;;;;;23.71;68.62;99369.81;5078753;28;20049;-85
2023/08/29 11:14:03;;;;;;;0.77;0.60;;;;;;;23.67;68.56;99373.81;5072783;28;20052;-83
2023/08/29 11:16:36;;;;;;;0.93;0.43;;;;;;;23.66;69.48;99373.03;5071131;28;20075;-85
2023/08/29 11:19:14;;;;;;;0.52;0.45;;;;;;;23.65;70.25;99376.22;5072270;28;20040;-84
2023/08/29 11:21:47;;;;;;;0.80;0.40;;;;;;;23.65;69.45;99367.84;5072170;28;20044;-82
2023/08/29 11:24:16;;;;;;;2.90;0.43;;;;;;;23.70;71.28;99371.03;5070791;28;20384;-83
2023/08/29 11:26:46;;;;;;;0.52;0.45;;;;;;;23.77;70.52;99367.44;5059153;28;20053;-82
2023/08/29 11:29:16;;;;;;;0.95;0.45;;;;;;;23.83;69.43;99363.06;5050764;28;20049;-82
2023/08/29 11:31:45;;;;;;;0.35;0.20;;;;;;;23.84;67.84;99366.63;5052045;28;20057;-84
2023/08/29 11:34:18;;;;;;;1.00;0.35;;;;;;;23.94;68.22;99370.63;5055109;28;20060;-84
2023/08/29 11:36:50;;;;;;;1.75;0.38;;;;;;;24.02;67.26;99363.81;5071612;28;20368;-85
2023/08/29 11:39:21;;;;;;;1.50;0.40;;;;;;;24.22;68.49;99369.78;5074364;28;20059;-83
2023/08/29 11:41:50;;;;;;;0.77;0.43;;;;;;;24.20;67.83;99371.41;5077899;28;20060;-84
2023/08/29 11:44:38;;;;;;;1.58;0.50;;;;;;;24.08;67.82;99364.22;5073844;28;20060;-83
2023/08/29 11:47:27;;;;;;;1.38;0.55;;;;;;;24.08;68.95;99359.44;5074194;28;20064;-84
2023/08/29 11:49:56;;;;;;;1.38;0.38;;;;;;;24.10;67.81;99354.22;5074160;28;20084;-84
2023/08/29 11:52:25;;;;;;;0.73;0.40;;;;;;;24.06;69.87;99367.41;5074852;28;20052;-84